sensor_id;sensor_type;location;lat;lon;timestamp;pressure;altitude;pressure_sealevel;temperature;humidity
78383;BME280;67668;52.294;4.692;2023-09-18T00:00:25;100668.81;;;19.46;80.61
78383;BME280;67668;52.294;4.692;2023-09-18T00:02:50;100653.53;;;19.47;80.89
78383;BME280;67668;52.294;4.692;2023-09-18T00:05:16;100640.94;;;19.47;81.53
78383;BME280;67668;52.294;4.692;2023-09-18T00:07:42;100640.72;;;19.49;81.65
78383;BME280;67668;52.294;4.692;2023-09-18T00:10:10;100633.50;;;19.49;81.13
78383;BME280;67668;52.294;4.692;2023-09-18T00:12:35;100628.97;;;19.50;81.13
78383;BME280;67668;52.294;4.692;2023-09-18T00:15:01;100629.97;;;19.49;80.78
78383;BME280;67668;52.294;4.692;2023-09-18T00:17:26;100627.28;;;19.49;81.85
78383;BME280;67668;52.294;4.692;2023-09-18T00:19:53;100623.59;;;19.50;81.26
78383;BME280;67668;52.294;4.692;2023-09-18T00:22:19;100612.03;;;19.49;81.27
78383;BME280;67668;52.294;4.692;2023-09-18T00:24:44;100612.84;;;19.50;81.35
78383;BME280;67668;52.294;4.692;2023-09-18T00:27:10;100609.16;;;19.51;80.90
78383;BME280;67668;52.294;4.692;2023-09-18T00:29:36;100608.13;;;19.52;81.12
78383;BME280;67668;52.294;4.692;2023-09-18T00:32:02;100597.38;;;19.52;81.49
78383;BME280;67668;52.294;4.692;2023-09-18T00:34:29;100601.09;;;19.51;81.05
78383;BME280;67668;52.294;4.692;2023-09-18T00:36:55;100594.69;;;19.52;81.11
78383;BME280;67668;52.294;4.692;2023-09-18T00:39:21;100597.38;;;19.52;81.29
78383;BME280;67668;52.294;4.692;2023-09-18T00:41:46;100596.31;;;19.53;81.83
78383;BME280;67668;52.294;4.692;2023-09-18T00:44:14;100592.63;;;19.54;81.30
78383;BME280;67668;52.294;4.692;2023-09-18T00:46:40;100585.41;;;19.54;81.37
78383;BME280;67668;52.294;4.692;2023-09-18T00:49:05;100572.81;;;19.55;81.14
78383;BME280;67668;52.294;4.692;2023-09-18T00:51:32;100565.56;;;19.55;81.15
78383;BME280;67668;52.294;4.692;2023-09-18T00:53:58;100558.31;;;19.56;81.32
78383;BME280;67668;52.294;4.692;2023-09-18T00:56:24;100545.75;;;19.56;80.85
78383;BME280;67668;52.294;4.692;2023-09-18T00:58:49;100547.59;;;19.56;80.92
78383;BME280;67668;52.294;4.692;2023-09-18T01:01:18;100541.19;;;19.57;81.18
78383;BME280;67668;52.294;4.692;2023-09-18T01:03:49;100519.72;;;19.57;81.40
78383;BME280;67668;52.294;4.692;2023-09-18T01:06:15;100511.66;;;19.57;81.90
78383;BME280;67668;52.294;4.692;2023-09-18T01:08:40;100505.28;;;19.58;81.36
78383;BME280;67668;52.294;4.692;2023-09-18T01:11:15;100489.16;;;19.58;81.38
78383;BME280;67668;52.294;4.692;2023-09-18T01:14:15;100492.44;;;19.60;81.68
78383;BME280;67668;52.294;4.692;2023-09-18T01:16:51;100497.63;;;19.62;81.56
78383;BME280;67668;52.294;4.692;2023-09-18T01:19:37;100494.94;;;19.62;81.17
78383;BME280;67668;52.294;4.692;2023-09-18T01:22:04;100492.25;;;19.62;81.59
78383;BME280;67668;52.294;4.692;2023-09-18T01:24:31;100472.63;;;19.61;81.08
78383;BME280;67668;52.294;4.692;2023-09-18T01:26:57;100472.63;;;19.61;81.40
78383;BME280;67668;52.294;4.692;2023-09-18T01:29:23;100476.16;;;19.62;81.72
78383;BME280;67668;52.294;4.692;2023-09-18T01:31:48;100474.06;;;19.64;81.71
78383;BME280;67668;52.294;4.692;2023-09-18T01:34:16;100465.81;;;19.65;82.04
78383;BME280;67668;52.294;4.692;2023-09-18T01:36:44;100461.47;;;19.64;81.75
78383;BME280;67668;52.294;4.692;2023-09-18T01:39:11;100445.13;;;19.66;81.90
78383;BME280;67668;52.294;4.692;2023-09-18T01:41:38;100445.13;;;19.66;81.57
78383;BME280;67668;52.294;4.692;2023-09-18T01:44:03;100465.81;;;19.65;81.00
78383;BME280;67668;52.294;4.692;2023-09-18T01:46:30;100482.94;;;19.64;80.87
78383;BME280;67668;52.294;4.692;2023-09-18T01:48:58;100489.97;;;19.65;81.19
78383;BME280;67668;52.294;4.692;2023-09-18T01:51:24;100473.88;;;19.65;81.82
78383;BME280;67668;52.294;4.692;2023-09-18T01:53:49;100474.47;;;19.67;81.85
78383;BME280;67668;52.294;4.692;2023-09-18T01:56:16;100465.59;;;19.67;81.13
78383;BME280;67668;52.294;4.692;2023-09-18T01:58:41;100459.38;;;19.66;80.94
78383;BME280;67668;52.294;4.692;2023-09-18T02:01:07;100469.09;;;19.67;81.10
78383;BME280;67668;52.294;4.692;2023-09-18T02:03:32;100462.91;;;19.67;81.10
78383;BME280;67668;52.294;4.692;2023-09-18T02:05:57;100467.44;;;19.66;81.43
78383;BME280;67668;52.294;4.692;2023-09-18T02:08:23;100468.09;;;19.68;81.67
78383;BME280;67668;52.294;4.692;2023-09-18T02:10:48;100464.56;;;19.68;80.92
78383;BME280;67668;52.294;4.692;2023-09-18T02:13:14;100466.22;;;19.69;80.54
78383;BME280;67668;52.294;4.692;2023-09-18T02:15:39;100462.72;;;19.68;80.39
78383;BME280;67668;52.294;4.692;2023-09-18T02:18:05;100466.22;;;19.69;80.32
78383;BME280;67668;52.294;4.692;2023-09-18T02:20:30;100471.59;;;19.69;80.23
78383;BME280;67668;52.294;4.692;2023-09-18T02:22:55;100467.84;;;19.70;80.33
78383;BME280;67668;52.294;4.692;2023-09-18T02:25:22;100476.53;;;19.72;80.97
78383;BME280;67668;52.294;4.692;2023-09-18T02:27:47;100468.50;;;19.72;81.00
78383;BME280;67668;52.294;4.692;2023-09-18T02:30:14;100466.59;;;19.72;80.88
78383;BME280;67668;52.294;4.692;2023-09-18T02:32:40;100465.56;;;19.73;80.80
78383;BME280;67668;52.294;4.692;2023-09-18T02:35:06;100469.91;;;19.74;80.69
78383;BME280;67668;52.294;4.692;2023-09-18T02:37:32;100468.06;;;19.75;81.05
78383;BME280;67668;52.294;4.692;2023-09-18T02:39:57;100455.47;;;19.75;81.14
78383;BME280;67668;52.294;4.692;2023-09-18T02:42:23;100452.78;;;19.75;80.54
78383;BME280;67668;52.294;4.692;2023-09-18T02:44:48;100455.47;;;19.75;80.55
78383;BME280;67668;52.294;4.692;2023-09-18T02:47:14;100450.09;;;19.75;80.66
78383;BME280;67668;52.294;4.692;2023-09-18T02:49:39;100440.97;;;19.76;80.83
78383;BME280;67668;52.294;4.692;2023-09-18T02:52:06;100421.34;;;19.76;80.90
78383;BME280;67668;52.294;4.692;2023-09-18T02:54:31;100413.09;;;19.77;81.19
78383;BME280;67668;52.294;4.692;2023-09-18T02:56:56;100412.88;;;19.79;81.46
78383;BME280;67668;52.294;4.692;2023-09-18T02:59:22;100396.56;;;19.80;81.59
78383;BME280;67668;52.294;4.692;2023-09-18T03:01:48;100386.84;;;19.79;81.22
78383;BME280;67668;52.294;4.692;2023-09-18T03:04:14;100378.78;;;19.79;80.40
78383;BME280;67668;52.294;4.692;2023-09-18T03:06:39;100362.91;;;19.78;79.74
78383;BME280;67668;52.294;4.692;2023-09-18T03:09:06;100346.56;;;19.79;81.03
78383;BME280;67668;52.294;4.692;2023-09-18T03:11:31;100328.59;;;19.80;80.76
78383;BME280;67668;52.294;4.692;2023-09-18T03:13:57;100343.88;;;19.79;79.79
78383;BME280;67668;52.294;4.692;2023-09-18T03:16:22;100374.47;;;19.78;80.15
78383;BME280;67668;52.294;4.692;2023-09-18T03:18:48;100356.28;;;19.80;80.92
78383;BME280;67668;52.294;4.692;2023-09-18T03:21:14;100338.31;;;19.81;81.24
78383;BME280;67668;52.294;4.692;2023-09-18T03:23:39;100333.97;;;19.80;80.43
78383;BME280;67668;52.294;4.692;2023-09-18T03:26:05;100339.56;;;19.78;80.14
78383;BME280;67668;52.294;4.692;2023-09-18T03:28:30;100333.13;;;19.79;80.56
78383;BME280;67668;52.294;4.692;2023-09-18T03:30:58;100325.91;;;19.80;80.36
78383;BME280;67668;52.294;4.692;2023-09-18T03:33:24;100322.38;;;19.79;80.17
78383;BME280;67668;52.294;4.692;2023-09-18T03:35:51;100330.25;;;19.81;80.07
78383;BME280;67668;52.294;4.692;2023-09-18T03:38:17;100325.06;;;19.79;79.79
78383;BME280;67668;52.294;4.692;2023-09-18T03:40:43;100325.06;;;19.79;79.68
78383;BME280;67668;52.294;4.692;2023-09-18T03:43:09;100333.13;;;19.79;79.60
78383;BME280;67668;52.294;4.692;2023-09-18T03:45:35;100330.44;;;19.79;80.59
78383;BME280;67668;52.294;4.692;2023-09-18T03:48:00;100337.28;;;19.82;80.92
78383;BME280;67668;52.294;4.692;2023-09-18T03:50:25;100335.81;;;19.79;80.50
78383;BME280;67668;52.294;4.692;2023-09-18T03:52:52;100330.44;;;19.79;80.43
78383;BME280;67668;52.294;4.692;2023-09-18T03:55:18;100334.78;;;19.80;80.79
78383;BME280;67668;52.294;4.692;2023-09-18T03:57:43;100339.13;;;19.81;81.63
78383;BME280;67668;52.294;4.692;2023-09-18T04:00:10;100353.38;;;19.82;80.85
78383;BME280;67668;52.294;4.692;2023-09-18T04:02:36;100369.69;;;19.80;80.53
78383;BME280;67668;52.294;4.692;2023-09-18T04:05:02;100383.13;;;19.80;81.73
78383;BME280;67668;52.294;4.692;2023-09-18T04:07:28;100377.75;;;19.80;81.68
78383;BME280;67668;52.294;4.692;2023-09-18T04:09:54;100383.13;;;19.80;82.13
78383;BME280;67668;52.294;4.692;2023-09-18T04:12:20;100370.72;;;19.79;83.67
78383;BME280;67668;52.294;4.692;2023-09-18T04:14:45;100377.75;;;19.80;82.67
78383;BME280;67668;52.294;4.692;2023-09-18T04:17:11;100386.00;;;19.79;82.22
78383;BME280;67668;52.294;4.692;2023-09-18T04:29:41;100330.88;;;19.76;81.45
78383;BME280;67668;52.294;4.692;2023-09-18T04:32:07;100334.38;;;19.77;81.46
78383;BME280;67668;52.294;4.692;2023-09-18T04:34:32;100325.50;;;19.76;81.63
78383;BME280;67668;52.294;4.692;2023-09-18T04:36:57;100316.63;;;19.76;81.61
78383;BME280;67668;52.294;4.692;2023-09-18T04:39:23;100309.41;;;19.76;81.82
78383;BME280;67668;52.294;4.692;2023-09-18T04:41:48;100294.94;;;19.77;81.44
78383;BME280;67668;52.294;4.692;2023-09-18T04:44:14;100293.28;;;19.76;81.45
78383;BME280;67668;52.294;4.692;2023-09-18T04:46:40;100296.78;;;19.77;81.20
78383;BME280;67668;52.294;4.692;2023-09-18T04:49:07;100295.13;;;19.76;81.44
78383;BME280;67668;52.294;4.692;2023-09-18T04:51:33;100284.19;;;19.77;81.33
78383;BME280;67668;52.294;4.692;2023-09-18T04:53:58;100284.41;;;19.76;81.39
78383;BME280;67668;52.294;4.692;2023-09-18T04:56:24;100286.28;;;19.75;81.31
78383;BME280;67668;52.294;4.692;2023-09-18T04:58:51;100270.97;;;19.76;81.66
78383;BME280;67668;52.294;4.692;2023-09-18T05:01:16;100270.16;;;19.75;81.22
78383;BME280;67668;52.294;4.692;2023-09-18T05:03:42;100265.81;;;19.74;80.88
78383;BME280;67668;52.294;4.692;2023-09-18T05:06:08;100272.84;;;19.75;81.03
78383;BME280;67668;52.294;4.692;2023-09-18T05:08:33;100276.56;;;19.74;81.21
78383;BME280;67668;52.294;4.692;2023-09-18T05:10:58;100266.66;;;19.75;81.44
78383;BME280;67668;52.294;4.692;2023-09-18T05:13:24;100254.25;;;19.74;80.96
78383;BME280;67668;52.294;4.692;2023-09-18T05:15:50;100255.28;;;19.73;80.59
78383;BME280;67668;52.294;4.692;2023-09-18T05:18:15;100245.38;;;19.73;81.57
78383;BME280;67668;52.294;4.692;2023-09-18T05:20:41;100252.41;;;19.74;81.81
78383;BME280;67668;52.294;4.692;2023-09-18T05:23:06;100225.53;;;19.74;81.25
78383;BME280;67668;52.294;4.692;2023-09-18T05:25:33;100220.38;;;19.73;81.34
78383;BME280;67668;52.294;4.692;2023-09-18T05:28:00;100216.06;;;19.72;81.31
78383;BME280;67668;52.294;4.692;2023-09-18T05:30:28;100218.75;;;19.72;81.58
78383;BME280;67668;52.294;4.692;2023-09-18T05:32:55;100205.34;;;19.72;81.64
78383;BME280;67668;52.294;4.692;2023-09-18T05:35:20;100203.44;;;19.72;81.49
78383;BME280;67668;52.294;4.692;2023-09-18T05:37:46;100217.94;;;19.71;81.09
78383;BME280;67668;52.294;4.692;2023-09-18T05:40:13;100234.88;;;19.72;81.97
78383;BME280;67668;52.294;4.692;2023-09-18T05:42:40;100250.97;;;19.72;82.00
78383;BME280;67668;52.294;4.692;2023-09-18T05:45:10;100266.25;;;19.71;81.57
78383;BME280;67668;52.294;4.692;2023-09-18T05:47:36;100261.91;;;19.70;81.58
78383;BME280;67668;52.294;4.692;2023-09-18T05:50:03;100260.91;;;19.71;81.46
78383;BME280;67668;52.294;4.692;2023-09-18T05:52:32;100243.94;;;19.71;82.50
78383;BME280;67668;52.294;4.692;2023-09-18T05:54:58;100250.16;;;19.71;82.24
78383;BME280;67668;52.294;4.692;2023-09-18T05:57:23;100256.56;;;19.70;81.45
78383;BME280;67668;52.294;4.692;2023-09-18T05:59:49;100261.09;;;19.70;81.71
78383;BME280;67668;52.294;4.692;2023-09-18T06:02:14;100258.41;;;19.70;82.91
78383;BME280;67668;52.294;4.692;2023-09-18T06:04:41;100253.03;;;19.70;82.58
78383;BME280;67668;52.294;4.692;2023-09-18T06:07:07;100262.16;;;19.69;81.57
78383;BME280;67668;52.294;4.692;2023-09-18T06:09:32;100260.50;;;19.68;81.45
78383;BME280;67668;52.294;4.692;2023-09-18T06:11:58;100267.53;;;19.69;81.22
78383;BME280;67668;52.294;4.692;2023-09-18T06:14:24;100272.91;;;19.69;81.34
78383;BME280;67668;52.294;4.692;2023-09-18T06:16:50;100270.41;;;19.67;81.00
78383;BME280;67668;52.294;4.692;2023-09-18T06:19:16;100277.44;;;19.68;81.00
78383;BME280;67668;52.294;4.692;2023-09-18T06:21:44;100281.97;;;19.68;80.97
78383;BME280;67668;52.294;4.692;2023-09-18T06:24:10;100281.16;;;19.67;81.36
78383;BME280;67668;52.294;4.692;2023-09-18T06:26:35;100292.72;;;19.68;81.50
78383;BME280;67668;52.294;4.692;2023-09-18T06:29:01;100276.59;;;19.68;81.74
78383;BME280;67668;52.294;4.692;2023-09-18T06:31:27;100278.25;;;19.69;81.84
78383;BME280;67668;52.294;4.692;2023-09-18T06:33:53;100272.06;;;19.68;81.79
78383;BME280;67668;52.294;4.692;2023-09-18T06:36:18;100270.22;;;19.69;81.92
78383;BME280;67668;52.294;4.692;2023-09-18T06:38:44;100264.84;;;19.69;81.70
78383;BME280;67668;52.294;4.692;2023-09-18T06:41:09;100268.31;;;19.69;81.42
78383;BME280;67668;52.294;4.692;2023-09-18T06:43:35;100270.22;;;19.69;82.05
78383;BME280;67668;52.294;4.692;2023-09-18T06:46:00;100273.69;;;19.69;82.16
78383;BME280;67668;52.294;4.692;2023-09-18T06:48:27;100262.94;;;19.69;81.71
78383;BME280;67668;52.294;4.692;2023-09-18T06:50:57;100250.59;;;19.68;81.66
78383;BME280;67668;52.294;4.692;2023-09-18T06:53:24;100255.13;;;19.68;82.08
78383;BME280;67668;52.294;4.692;2023-09-18T06:55:49;100249.53;;;19.69;82.14
78383;BME280;67668;52.294;4.692;2023-09-18T06:58:15;100246.84;;;19.69;82.42
78383;BME280;67668;52.294;4.692;2023-09-18T07:00:40;100248.50;;;19.70;82.89
78383;BME280;67668;52.294;4.692;2023-09-18T07:03:05;100249.31;;;19.71;82.98
78383;BME280;67668;52.294;4.692;2023-09-18T07:05:31;100255.72;;;19.70;83.03
78383;BME280;67668;52.294;4.692;2023-09-18T07:07:56;100260.06;;;19.71;82.42
78383;BME280;67668;52.294;4.692;2023-09-18T07:10:22;100256.34;;;19.72;84.36
78383;BME280;67668;52.294;4.692;2023-09-18T07:12:49;100247.22;;;19.73;84.00
78383;BME280;67668;52.294;4.692;2023-09-18T07:15:15;100243.72;;;19.72;84.14
78383;BME280;67668;52.294;4.692;2023-09-18T07:17:40;100241.03;;;19.72;84.34
78383;BME280;67668;52.294;4.692;2023-09-18T07:20:06;100237.31;;;19.73;84.72
78383;BME280;67668;52.294;4.692;2023-09-18T07:22:39;100242.69;;;19.73;84.46
78383;BME280;67668;52.294;4.692;2023-09-18T07:25:04;100249.72;;;19.74;84.78
78383;BME280;67668;52.294;4.692;2023-09-18T07:27:30;100247.84;;;19.75;83.84
78383;BME280;67668;52.294;4.692;2023-09-18T07:29:56;100242.25;;;19.76;84.48
78383;BME280;67668;52.294;4.692;2023-09-18T07:32:22;100243.91;;;19.77;84.39
78383;BME280;67668;52.294;4.692;2023-09-18T07:34:48;100249.06;;;19.79;85.24
78383;BME280;67668;52.294;4.692;2023-09-18T07:37:14;100253.38;;;19.80;85.32
78383;BME280;67668;52.294;4.692;2023-09-18T07:39:46;100255.88;;;19.81;85.37
78383;BME280;67668;52.294;4.692;2023-09-18T07:42:12;100263.50;;;19.84;85.96
78383;BME280;67668;52.294;4.692;2023-09-18T07:44:37;100263.28;;;19.86;85.74
78383;BME280;67668;52.294;4.692;2023-09-18T07:47:03;100253.34;;;19.86;86.19
78383;BME280;67668;52.294;4.692;2023-09-18T07:49:28;100254.19;;;19.87;85.38
78383;BME280;67668;52.294;4.692;2023-09-18T07:51:55;100273.38;;;19.90;85.55
78383;BME280;67668;52.294;4.692;2023-09-18T07:54:20;100272.13;;;19.93;85.73
78383;BME280;67668;52.294;4.692;2023-09-18T07:56:46;100284.06;;;19.97;86.47
78383;BME280;67668;52.294;4.692;2023-09-18T07:59:11;100283.88;;;19.98;86.71
78383;BME280;67668;52.294;4.692;2023-09-18T08:01:36;100278.88;;;20.02;86.40
78383;BME280;67668;52.294;4.692;2023-09-18T08:04:02;100290.63;;;20.07;87.06
78383;BME280;67668;52.294;4.692;2023-09-18T08:06:27;100297.22;;;20.11;87.03
78383;BME280;67668;52.294;4.692;2023-09-18T08:08:53;100300.50;;;20.13;86.06
78383;BME280;67668;52.294;4.692;2023-09-18T08:11:19;100301.94;;;20.16;85.91
78383;BME280;67668;52.294;4.692;2023-09-18T08:13:44;100297.78;;;20.20;85.33
78383;BME280;67668;52.294;4.692;2023-09-18T08:16:10;100299.00;;;20.24;85.86
78383;BME280;67668;52.294;4.692;2023-09-18T08:18:35;100304.94;;;20.33;87.31
78383;BME280;67668;52.294;4.692;2023-09-18T08:21:00;100304.06;;;20.39;87.45
78383;BME280;67668;52.294;4.692;2023-09-18T08:23:26;100300.53;;;20.45;88.04
78383;BME280;67668;52.294;4.692;2023-09-18T08:25:51;100302.94;;;20.53;88.08
78383;BME280;67668;52.294;4.692;2023-09-18T08:28:20;100302.88;;;20.59;87.29
78383;BME280;67668;52.294;4.692;2023-09-18T08:30:46;100306.53;;;20.65;87.10
78383;BME280;67668;52.294;4.692;2023-09-18T08:33:13;100313.13;;;20.69;85.72
78383;BME280;67668;52.294;4.692;2023-09-18T08:35:39;100310.63;;;20.74;85.43
78383;BME280;67668;52.294;4.692;2023-09-18T08:38:05;100322.94;;;20.82;85.67
78383;BME280;67668;52.294;4.692;2023-09-18T08:40:30;100315.44;;;20.90;85.84
78383;BME280;67668;52.294;4.692;2023-09-18T08:42:56;100309.97;;;20.97;84.05
78383;BME280;67668;52.294;4.692;2023-09-18T08:45:35;100315.88;;;21.05;83.17
78383;BME280;67668;52.294;4.692;2023-09-18T08:48:03;100306.94;;;21.11;81.28
78383;BME280;67668;52.294;4.692;2023-09-18T08:50:29;100306.66;;;21.20;82.71
78383;BME280;67668;52.294;4.692;2023-09-18T08:52:55;100311.75;;;21.28;82.37
78383;BME280;67668;52.294;4.692;2023-09-18T08:55:21;100323.69;;;21.32;80.30
78383;BME280;67668;52.294;4.692;2023-09-18T08:57:47;100320.13;;;21.38;79.70
78383;BME280;67668;52.294;4.692;2023-09-18T09:00:14;100321.31;;;21.42;78.88
78383;BME280;67668;52.294;4.692;2023-09-18T09:02:45;100319.00;;;21.45;78.06
78383;BME280;67668;52.294;4.692;2023-09-18T09:05:11;100329.09;;;21.50;77.91
78383;BME280;67668;52.294;4.692;2023-09-18T09:07:36;100324.31;;;21.52;77.77
78383;BME280;67668;52.294;4.692;2023-09-18T09:10:02;100322.81;;;21.56;77.33
78383;BME280;67668;52.294;4.692;2023-09-18T09:12:55;100330.69;;;21.57;76.38
78383;BME280;67668;52.294;4.692;2023-09-18T09:15:26;100341.22;;;21.59;76.57
78383;BME280;67668;52.294;4.692;2023-09-18T09:18:02;100340.53;;;21.63;76.66
78383;BME280;67668;52.294;4.692;2023-09-18T09:20:28;100336.56;;;21.66;76.63
78383;BME280;67668;52.294;4.692;2023-09-18T09:23:00;100343.16;;;21.70;75.80
78383;BME280;67668;52.294;4.692;2023-09-18T09:25:27;100348.66;;;21.75;76.06
78383;BME280;67668;52.294;4.692;2023-09-18T09:27:54;100355.06;;;21.81;75.73
78383;BME280;67668;52.294;4.692;2023-09-18T09:30:26;100352.47;;;21.86;76.39
78383;BME280;67668;52.294;4.692;2023-09-18T09:32:53;100349.53;;;21.94;77.37
78383;BME280;67668;52.294;4.692;2023-09-18T09:35:33;100341.34;;;22.00;76.71
78383;BME280;67668;52.294;4.692;2023-09-18T09:38:10;100345.56;;;22.08;76.36
78383;BME280;67668;52.294;4.692;2023-09-18T09:40:39;100351.94;;;22.13;75.36
78383;BME280;67668;52.294;4.692;2023-09-18T09:43:08;100349.59;;;22.17;74.39
78383;BME280;67668;52.294;4.692;2023-09-18T09:45:34;100349.16;;;22.20;74.44
78383;BME280;67668;52.294;4.692;2023-09-18T09:48:04;100370.63;;;22.27;74.34
78383;BME280;67668;52.294;4.692;2023-09-18T09:50:46;100359.97;;;22.32;74.60
78383;BME280;67668;52.294;4.692;2023-09-18T09:53:14;100361.38;;;22.34;73.61
78383;BME280;67668;52.294;4.692;2023-09-18T09:55:40;100370.44;;;22.40;73.69
78383;BME280;67668;52.294;4.692;2023-09-18T09:58:07;100366.19;;;22.44;73.23
78383;BME280;67668;52.294;4.692;2023-09-18T10:00:41;100363.66;;;22.49;73.08
78383;BME280;67668;52.294;4.692;2023-09-18T10:03:10;100371.06;;;22.53;72.95
78383;BME280;67668;52.294;4.692;2023-09-18T10:05:41;100364.72;;;22.59;72.89
78383;BME280;67668;52.294;4.692;2023-09-18T10:08:12;100353.00;;;22.65;72.94
78383;BME280;67668;52.294;4.692;2023-09-18T10:10:47;100351.53;;;22.70;70.95
78383;BME280;67668;52.294;4.692;2023-09-18T10:13:20;100357.03;;;22.75;71.33
78383;BME280;67668;52.294;4.692;2023-09-18T10:15:50;100360.09;;;22.78;70.99
78383;BME280;67668;52.294;4.692;2023-09-18T10:18:45;100346.84;;;22.88;70.61
78383;BME280;67668;52.294;4.692;2023-09-18T10:24:14;100339.69;;;23.05;69.79
78383;BME280;67668;52.294;4.692;2023-09-18T10:26:50;100351.78;;;23.14;69.05
78383;BME280;67668;52.294;4.692;2023-09-18T10:29:19;100353.88;;;23.24;69.39
78383;BME280;67668;52.294;4.692;2023-09-18T10:31:47;100340.84;;;23.33;69.50
78383;BME280;67668;52.294;4.692;2023-09-18T10:34:13;100339.88;;;23.39;69.76
78383;BME280;67668;52.294;4.692;2023-09-18T10:36:41;100340.63;;;23.46;69.21
78383;BME280;67668;52.294;4.692;2023-09-18T10:39:08;100345.63;;;23.54;68.23
78383;BME280;67668;52.294;4.692;2023-09-18T10:41:36;100346.81;;;23.58;66.91
78383;BME280;67668;52.294;4.692;2023-09-18T10:44:03;100355.03;;;23.63;67.62
78383;BME280;67668;52.294;4.692;2023-09-18T10:46:29;100358.66;;;23.68;65.53
78383;BME280;67668;52.294;4.692;2023-09-18T10:48:56;100356.03;;;23.74;66.08
78383;BME280;67668;52.294;4.692;2023-09-18T10:51:24;100359.09;;;23.77;65.48
78383;BME280;67668;52.294;4.692;2023-09-18T10:53:50;100357.06;;;23.84;65.50
78383;BME280;67668;52.294;4.692;2023-09-18T10:56:19;100355.63;;;23.93;65.97
78383;BME280;67668;52.294;4.692;2023-09-18T10:58:46;100345.25;;;24.02;65.69
78383;BME280;67668;52.294;4.692;2023-09-18T11:01:12;100348.88;;;24.07;64.62
78383;BME280;67668;52.294;4.692;2023-09-18T11:03:38;100355.56;;;24.16;65.29
78383;BME280;67668;52.294;4.692;2023-09-18T11:06:11;100357.88;;;24.25;63.20
78383;BME280;67668;52.294;4.692;2023-09-18T11:08:46;100357.72;;;24.31;63.43
78383;BME280;67668;52.294;4.692;2023-09-18T11:11:16;100354.03;;;24.37;62.28
78383;BME280;67668;52.294;4.692;2023-09-18T11:13:50;100361.53;;;24.47;62.05
78383;BME280;67668;52.294;4.692;2023-09-18T11:19:12;100359.75;;;24.69;61.31
78383;BME280;67668;52.294;4.692;2023-09-18T11:21:41;100349.31;;;24.78;61.68
78383;BME280;67668;52.294;4.692;2023-09-18T11:24:16;100347.53;;;24.83;60.24
78383;BME280;67668;52.294;4.692;2023-09-18T11:26:45;100349.25;;;24.89;59.94
78383;BME280;67668;52.294;4.692;2023-09-18T11:29:13;100355.91;;;24.98;59.82
78383;BME280;67668;52.294;4.692;2023-09-18T11:31:46;100342.75;;;25.07;57.71
78383;BME280;67668;52.294;4.692;2023-09-18T11:36:41;100350.94;;;25.29;58.49
78383;BME280;67668;52.294;4.692;2023-09-18T11:39:08;100349.44;;;25.38;57.34
78383;BME280;67668;52.294;4.692;2023-09-18T11:41:36;100344.16;;;25.48;57.28
78383;BME280;67668;52.294;4.692;2023-09-18T11:46:49;100341.97;;;25.66;56.77
78383;BME280;67668;52.294;4.692;2023-09-18T11:49:21;100348.84;;;25.74;56.66
78383;BME280;67668;52.294;4.692;2023-09-18T11:51:47;100339.78;;;25.85;57.26
78383;BME280;67668;52.294;4.692;2023-09-18T11:54:14;100341.19;;;25.93;55.57
78383;BME280;67668;52.294;4.692;2023-09-18T11:56:41;100338.03;;;26.01;56.70
78383;BME280;67668;52.294;4.692;2023-09-18T11:59:10;100338.06;;;26.06;53.76
78383;BME280;67668;52.294;4.692;2023-09-18T12:01:36;100341.16;;;26.14;55.00
78383;BME280;67668;52.294;4.692;2023-09-18T12:04:05;100334.53;;;26.27;54.43
78383;BME280;67668;52.294;4.692;2023-09-18T12:06:36;100333.81;;;26.37;53.58
78383;BME280;67668;52.294;4.692;2023-09-18T12:09:03;100330.13;;;26.48;54.00
78383;BME280;67668;52.294;4.692;2023-09-18T12:11:35;100342.69;;;26.59;54.75
78383;BME280;67668;52.294;4.692;2023-09-18T12:14:08;100345.47;;;26.69;53.16
78383;BME280;67668;52.294;4.692;2023-09-18T12:19:30;100329.38;;;26.89;52.37
78383;BME280;67668;52.294;4.692;2023-09-18T12:21:57;100334.31;;;26.97;52.09
78383;BME280;67668;52.294;4.692;2023-09-18T12:24:26;100336.53;;;27.05;52.18
78383;BME280;67668;52.294;4.692;2023-09-18T12:26:53;100339.00;;;27.07;51.50
78383;BME280;67668;52.294;4.692;2023-09-18T12:29:19;100337.94;;;27.13;50.44
78383;BME280;67668;52.294;4.692;2023-09-18T12:31:45;100326.84;;;27.19;50.11
78383;BME280;67668;52.294;4.692;2023-09-18T12:34:20;100328.50;;;27.20;50.07
78383;BME280;67668;52.294;4.692;2023-09-18T12:36:47;100330.16;;;27.27;50.90
78383;BME280;67668;52.294;4.692;2023-09-18T12:39:16;100324.72;;;27.32;51.36
78383;BME280;67668;52.294;4.692;2023-09-18T12:41:44;100320.41;;;27.36;50.90
78383;BME280;67668;52.294;4.692;2023-09-18T12:44:09;100311.72;;;27.39;50.45
78383;BME280;67668;52.294;4.692;2023-09-18T12:46:36;100310.38;;;27.41;50.02
78383;BME280;67668;52.294;4.692;2023-09-18T12:49:21;100312.00;;;27.42;49.05
78383;BME280;67668;52.294;4.692;2023-09-18T12:51:59;100297.06;;;27.40;50.12
78383;BME280;67668;52.294;4.692;2023-09-18T12:54:38;100301.41;;;27.41;49.67
78383;BME280;67668;52.294;4.692;2023-09-18T12:57:05;100303.03;;;27.42;48.96
78383;BME280;67668;52.294;4.692;2023-09-18T12:59:32;100295.69;;;27.37;48.94
78383;BME280;67668;52.294;4.692;2023-09-18T13:02:05;100289.97;;;27.34;49.11
78383;BME280;67668;52.294;4.692;2023-09-18T13:04:35;100290.78;;;27.34;50.15
78383;BME280;67668;52.294;4.692;2023-09-18T13:07:13;100281.81;;;27.34;50.44
78383;BME280;67668;52.294;4.692;2023-09-18T13:09:41;100277.44;;;27.33;48.85
78383;BME280;67668;52.294;4.692;2023-09-18T13:12:07;100279.34;;;27.32;49.40
78383;BME280;67668;52.294;4.692;2023-09-18T13:15:01;100270.38;;;27.27;49.48